createdAt,value
2022-11-18T00:00:03.086Z,84.20
2022-11-18T00:03:02.755Z,84.30
2022-11-18T00:05:57.971Z,84.20
2022-11-18T00:08:47.152Z,84.20
2022-11-18T00:11:53.271Z,84.20
2022-11-18T00:14:41.887Z,84.20
2022-11-18T00:17:34.026Z,84.20
2022-11-18T00:20:22.826Z,84.20
2022-11-18T00:23:10.955Z,84.20
2022-11-18T00:26:04.086Z,84.20
2022-11-18T00:28:52.348Z,84.20
2022-11-18T00:31:40.890Z,84.20
2022-11-18T00:34:30.659Z,84.20
2022-11-18T00:37:19.391Z,84.30
2022-11-18T00:40:08.870Z,84.30
2022-11-18T00:42:57.607Z,84.30
2022-11-18T00:45:45.776Z,84.20
2022-11-18T00:48:34.578Z,84.30
2022-11-18T00:51:24.315Z,84.30
2022-11-18T00:54:13.522Z,84.20
2022-11-18T00:57:01.693Z,84.20
2022-11-18T00:59:50.235Z,84.30
2022-11-18T01:02:39.251Z,84.40
2022-11-18T01:05:27.614Z,84.30
2022-11-18T01:08:18.188Z,84.30
2022-11-18T01:11:21.135Z,84.30
2022-11-18T01:14:09.469Z,84.40
2022-11-18T01:16:58.341Z,84.40
2022-11-18T01:19:46.560Z,84.30
2022-11-18T01:22:34.916Z,84.30
2022-11-18T01:25:24.861Z,84.40
2022-11-18T01:28:15.540Z,84.30
2022-11-18T01:31:08.908Z,84.30
2022-11-18T01:33:58.383Z,84.30
2022-11-18T01:36:46.836Z,84.30
2022-11-18T01:39:35.419Z,84.30
2022-11-18T01:42:26.023Z,84.20
2022-11-18T01:45:29.607Z,84.20
2022-11-18T01:48:20.888Z,84.20
2022-11-18T01:51:13.267Z,84.30
2022-11-18T01:54:04.556Z,84.30
2022-11-18T01:56:55.763Z,84.30
2022-11-18T01:59:48.080Z,84.20
2022-11-18T02:02:39.000Z,84.20
2022-11-18T02:05:28.023Z,84.30
2022-11-18T02:08:19.133Z,84.30
2022-11-18T02:11:32.500Z,84.20
2022-11-18T02:14:23.903Z,84.20
2022-11-18T02:17:22.264Z,84.30
2022-11-18T02:20:29.772Z,84.30
2022-11-18T02:23:58.324Z,84.30
2022-11-18T02:27:27.942Z,84.30
2022-11-18T02:30:19.156Z,84.30
2022-11-18T02:33:12.802Z,84.30
2022-11-18T02:36:09.435Z,84.30
2022-11-18T02:39:03.632Z,84.30
2022-11-18T02:41:55.090Z,84.40
2022-11-18T02:44:50.968Z,84.30
2022-11-18T02:47:44.471Z,84.20
2022-11-18T02:50:34.883Z,84.30
2022-11-18T02:53:25.783Z,84.30
2022-11-18T02:56:15.479Z,84.30
2022-11-18T02:59:05.125Z,84.30
2022-11-18T03:01:53.927Z,84.30
2022-11-18T03:04:44.866Z,84.40
2022-11-18T03:07:37.236Z,84.40
2022-11-18T03:10:33.249Z,84.40
2022-11-18T03:13:27.992Z,84.40
2022-11-18T03:16:24.107Z,84.30
2022-11-18T03:19:21.613Z,84.40
2022-11-18T03:22:18.162Z,84.40
2022-11-18T03:25:11.428Z,84.40
2022-11-18T03:28:07.532Z,84.40
2022-11-18T03:31:00.492Z,84.40
2022-11-18T03:33:53.387Z,84.40
2022-11-18T03:36:51.272Z,84.30
2022-11-18T03:39:45.164Z,84.40
2022-11-18T03:42:38.774Z,84.50
2022-11-18T03:45:32.720Z,84.50
2022-11-18T03:48:25.663Z,84.50
2022-11-18T03:51:18.762Z,84.40
2022-11-18T03:54:12.363Z,84.40
2022-11-18T03:57:07.418Z,84.40
2022-11-18T04:00:00.845Z,84.40
2022-11-18T04:02:51.970Z,84.40
2022-11-18T04:05:42.893Z,84.40
2022-11-18T04:08:34.672Z,84.40
2022-11-18T04:11:45.641Z,84.40
2022-11-18T04:14:37.891Z,84.40
2022-11-18T04:17:30.009Z,84.40
2022-11-18T04:20:20.083Z,84.40
2022-11-18T04:23:09.371Z,84.40
2022-11-18T04:25:57.692Z,84.40
2022-11-18T04:28:46.176Z,84.40
2022-11-18T04:31:36.023Z,84.40
2022-11-18T04:34:25.131Z,84.40
2022-11-18T04:37:13.535Z,84.40
2022-11-18T04:40:02.330Z,84.40
2022-11-18T04:42:51.115Z,84.40
2022-11-18T04:45:39.683Z,84.40
2022-11-18T04:48:29.175Z,84.40
2022-11-18T04:51:17.678Z,84.40
2022-11-18T04:54:07.082Z,84.30
2022-11-18T04:56:56.694Z,84.30
2022-11-18T04:59:45.325Z,84.30
2022-11-18T05:02:33.914Z,84.40
2022-11-18T05:05:23.889Z,84.40
2022-11-18T05:08:12.759Z,84.40
2022-11-18T05:11:21.964Z,84.40
2022-11-18T05:14:09.659Z,84.40
2022-11-18T05:16:59.318Z,84.40
2022-11-18T05:19:47.813Z,84.40
2022-11-18T05:22:37.396Z,84.50
2022-11-18T05:25:26.158Z,84.50
2022-11-18T05:28:14.504Z,84.50
2022-11-18T05:31:08.844Z,84.50
2022-11-18T05:33:57.076Z,84.40
2022-11-18T05:36:45.916Z,84.40
2022-11-18T05:39:35.852Z,84.40
2022-11-18T05:42:41.787Z,84.50
2022-11-18T05:45:29.975Z,84.50
2022-11-18T05:48:19.384Z,84.50
2022-11-18T05:51:07.747Z,84.50
2022-11-18T05:53:58.239Z,84.50
2022-11-18T05:56:48.028Z,84.60
2022-11-18T05:59:37.231Z,84.60
2022-11-18T06:02:25.717Z,84.60
2022-11-18T06:05:16.112Z,84.60
2022-11-18T06:08:04.438Z,84.60
2022-11-18T06:10:54.322Z,84.70
2022-11-18T06:13:50.716Z,84.70
2022-11-18T06:16:42.455Z,84.70
2022-11-18T06:19:31.174Z,84.70
2022-11-18T06:22:20.574Z,84.80
2022-11-18T06:25:09.632Z,84.70
2022-11-18T06:28:00.490Z,84.70
2022-11-18T06:30:50.157Z,84.70
2022-11-18T06:33:38.969Z,84.70
2022-11-18T06:36:27.650Z,84.70
2022-11-18T06:39:16.444Z,84.70
2022-11-18T06:42:04.524Z,84.80
2022-11-18T06:44:51.835Z,84.70
2022-11-18T06:47:41.498Z,84.70
2022-11-18T06:50:30.124Z,84.70
2022-11-18T06:53:18.422Z,84.80
2022-11-18T06:56:07.657Z,84.70
2022-11-18T06:58:58.984Z,84.80
2022-11-18T07:01:47.393Z,84.70
2022-11-18T07:04:39.823Z,84.70
2022-11-18T07:07:28.343Z,84.70
2022-11-18T07:10:17.611Z,84.70
2022-11-18T07:13:06.041Z,84.70
2022-11-18T07:15:54.727Z,84.70
2022-11-18T07:18:44.778Z,84.60
2022-11-18T07:21:35.010Z,84.60
2022-11-18T07:24:23.592Z,84.60
2022-11-18T07:27:12.263Z,84.60
2022-11-18T07:30:00.528Z,84.70
2022-11-18T07:32:49.004Z,84.70
2022-11-18T07:35:37.248Z,84.60
2022-11-18T07:38:27.172Z,84.50
2022-11-18T07:41:17.145Z,84.50
2022-11-18T07:44:06.650Z,84.50
2022-11-18T07:46:55.063Z,84.40
2022-11-18T07:49:43.637Z,84.50
2022-11-18T07:52:32.092Z,84.40
2022-11-18T07:55:21.927Z,84.40
2022-11-18T07:58:10.740Z,84.40
2022-11-18T08:00:59.067Z,84.40
2022-11-18T08:03:49.078Z,84.50
2022-11-18T08:06:38.080Z,84.50
2022-11-18T08:09:26.692Z,84.50
2022-11-18T08:12:16.676Z,84.50
2022-11-18T08:15:05.530Z,84.70
2022-11-18T08:17:53.756Z,84.70
2022-11-18T08:20:42.170Z,84.70
2022-11-18T08:23:33.981Z,84.70
2022-11-18T08:26:25.915Z,84.70
2022-11-18T08:29:20.275Z,84.70
2022-11-18T08:32:12.331Z,84.60
2022-11-18T08:35:00.227Z,84.80
2022-11-18T08:37:48.775Z,84.80
2022-11-18T08:40:37.171Z,84.80
2022-11-18T08:43:25.811Z,84.80
2022-11-18T08:46:15.372Z,84.70
2022-11-18T08:49:04.948Z,84.80
2022-11-18T08:51:53.663Z,84.80
2022-11-18T08:54:42.251Z,84.90
2022-11-18T08:57:30.859Z,84.90
2022-11-18T09:00:20.593Z,85.00
2022-11-18T09:03:10.368Z,85.00
2022-11-18T09:06:07.775Z,84.90
2022-11-18T09:08:56.461Z,85.00
2022-11-18T09:11:45.080Z,85.00
2022-11-18T09:15:12.471Z,85.00
2022-11-18T09:17:42.478Z,85.00
2022-11-18T09:20:32.707Z,85.20
2022-11-18T09:23:21.055Z,85.00
2022-11-18T09:26:12.139Z,85.00
2022-11-18T09:29:00.923Z,85.10
2022-11-18T09:31:49.843Z,85.10
2022-11-18T09:34:38.101Z,85.10
2022-11-18T09:37:28.677Z,85.10
2022-11-18T09:40:19.516Z,85.10
2022-11-18T09:43:17.787Z,85.00
2022-11-18T09:46:22.371Z,85.10
2022-11-18T09:49:16.475Z,85.10
2022-11-18T09:52:08.042Z,85.10
2022-11-18T09:54:59.887Z,85.10
2022-11-18T09:57:51.240Z,85.10
2022-11-18T10:00:44.780Z,85.10
2022-11-18T10:03:34.399Z,85.10
2022-11-18T10:06:27.837Z,85.10
2022-11-18T10:09:34.540Z,85.60
2022-11-18T10:12:37.184Z,85.10
2022-11-18T10:15:33.955Z,85.10
2022-11-18T10:18:58.373Z,85.10
2022-11-18T10:21:52.608Z,85.70
2022-11-18T10:24:44.352Z,85.10
2022-11-18T10:27:41.141Z,85.60
2022-11-18T10:30:29.773Z,85.00
2022-11-18T10:33:27.079Z,85.00
2022-11-18T10:36:28.812Z,85.00
2022-11-18T10:39:17.862Z,85.00
2022-11-18T10:42:09.287Z,85.00
2022-11-18T10:45:17.846Z,85.00
2022-11-18T10:48:11.487Z,85.10
2022-11-18T10:51:19.908Z,85.00
2022-11-18T10:54:10.518Z,85.00
2022-11-18T10:57:02.988Z,85.10
2022-11-18T10:59:53.607Z,85.10
2022-11-18T11:02:43.407Z,85.10
2022-11-18T11:05:32.865Z,85.10
2022-11-18T11:08:36.996Z,85.10
2022-11-18T11:11:28.884Z,85.00
2022-11-18T11:14:23.460Z,85.10
2022-11-18T11:17:15.685Z,85.00
2022-11-18T11:20:16.606Z,85.10
2022-11-18T11:23:11.288Z,85.10
2022-11-18T11:29:24.503Z,85.10
2022-11-18T11:32:20.312Z,85.20
2022-11-18T11:35:18.582Z,85.20
2022-11-18T11:38:18.239Z,85.10
2022-11-18T11:41:16.543Z,85.10
2022-11-18T11:44:29.997Z,85.10
2022-11-18T11:47:48.298Z,85.10
2022-11-18T11:51:03.957Z,85.10
2022-11-18T11:54:21.538Z,85.10
2022-11-18T11:57:21.450Z,85.20
2022-11-18T12:00:15.153Z,85.70
2022-11-18T12:03:16.606Z,85.10
2022-11-18T12:06:09.426Z,85.10
2022-11-18T12:09:06.506Z,85.10
2022-11-18T12:12:00.416Z,85.00
2022-11-18T12:14:54.897Z,85.00
2022-11-18T12:17:50.785Z,85.00
2022-11-18T12:20:41.715Z,85.00
2022-11-18T12:23:33.045Z,85.00
2022-11-18T12:26:36.053Z,85.00
2022-11-18T12:29:25.840Z,85.00
2022-11-18T12:32:34.975Z,84.90
2022-11-18T12:35:27.614Z,84.90
2022-11-18T12:38:32.575Z,84.90
2022-11-18T12:42:11.596Z,84.90
2022-11-18T12:45:37.832Z,84.90
2022-11-18T12:48:38.628Z,84.90
2022-11-18T12:51:47.823Z,84.80
2022-11-18T12:54:41.240Z,84.80
2022-11-18T12:57:32.303Z,84.90
2022-11-18T13:00:31.534Z,84.90
2022-11-18T13:03:29.082Z,84.90
2022-11-18T13:06:25.797Z,84.80
2022-11-18T13:09:18.092Z,84.80
2022-11-18T13:12:15.813Z,84.80
2022-11-18T13:15:29.431Z,84.80
2022-11-18T13:18:19.267Z,84.80
2022-11-18T13:21:24.034Z,84.90
2022-11-18T13:24:16.722Z,84.90
2022-11-18T13:27:06.050Z,84.90
2022-11-18T13:30:03.162Z,84.90
2022-11-18T13:33:00.570Z,84.90
2022-11-18T13:35:48.830Z,84.80
2022-11-18T13:38:37.395Z,84.80
2022-11-18T13:41:32.693Z,84.80
2022-11-18T13:44:24.493Z,84.80
2022-11-18T13:47:23.341Z,84.90
2022-11-18T13:50:21.011Z,84.90
2022-11-18T13:53:19.204Z,84.90
2022-11-18T13:56:16.448Z,84.90
2022-11-18T13:59:20.923Z,84.90
2022-11-18T14:02:14.810Z,85.00
2022-11-18T14:05:03.428Z,85.00
2022-11-18T14:08:02.206Z,85.00
2022-11-18T14:10:50.776Z,85.00
2022-11-18T14:13:50.184Z,84.90
2022-11-18T14:16:40.448Z,85.00
2022-11-18T14:19:32.075Z,85.00
2022-11-18T14:22:23.171Z,85.10
2022-11-18T14:25:20.442Z,85.00
2022-11-18T14:28:14.511Z,85.30
2022-11-18T14:31:08.585Z,85.10
2022-11-18T14:34:15.398Z,85.00
2022-11-18T14:37:12.350Z,85.00
2022-11-18T14:40:00.964Z,85.00
2022-11-18T14:42:49.350Z,85.00
2022-11-18T14:45:38.604Z,85.00
2022-11-18T14:48:32.284Z,85.10
2022-11-18T14:51:21.053Z,85.10
2022-11-18T14:54:18.162Z,85.00
2022-11-18T14:57:08.097Z,85.10
2022-11-18T14:59:56.245Z,85.00
2022-11-18T15:02:45.037Z,85.00
2022-11-18T15:05:33.647Z,85.00
2022-11-18T15:08:22.030Z,85.00
2022-11-18T15:11:13.170Z,85.10
2022-11-18T15:14:01.640Z,85.10
2022-11-18T15:16:50.073Z,85.10
2022-11-18T15:19:38.618Z,85.10
2022-11-18T15:22:27.416Z,85.20
2022-11-18T15:25:16.331Z,85.10
2022-11-18T15:28:06.356Z,85.10
2022-11-18T15:30:54.627Z,85.10
2022-11-18T15:33:44.953Z,85.10
2022-11-18T15:36:33.851Z,85.10
2022-11-18T15:39:22.375Z,85.10
2022-11-18T15:42:10.743Z,85.10
2022-11-18T15:45:00.799Z,85.00
2022-11-18T15:47:49.152Z,85.10
2022-11-18T15:50:37.718Z,85.00
2022-11-18T15:53:26.147Z,85.00
2022-11-18T15:56:28.959Z,85.10
2022-11-18T15:59:18.090Z,85.10
2022-11-18T16:02:10.938Z,85.00
2022-11-18T16:04:59.160Z,85.10
2022-11-18T16:07:51.443Z,85.10
2022-11-18T16:11:05.765Z,85.10
2022-11-18T16:13:54.127Z,85.10
2022-11-18T16:16:44.098Z,85.10
2022-11-18T16:19:33.743Z,85.10
2022-11-18T16:22:22.218Z,85.10
2022-11-18T16:25:12.447Z,85.00
2022-11-18T16:28:07.091Z,85.70
2022-11-18T16:31:13.973Z,85.10
2022-11-18T16:34:07.002Z,85.10
2022-11-18T16:36:58.426Z,85.00
2022-11-18T16:39:47.026Z,85.10
2022-11-18T16:42:35.746Z,85.00
2022-11-18T16:45:24.385Z,85.00
2022-11-18T16:48:12.404Z,85.00
2022-11-18T16:51:19.309Z,85.00
2022-11-18T16:54:09.207Z,85.00
2022-11-18T16:57:00.504Z,85.10
2022-11-18T16:59:48.944Z,85.10
2022-11-18T17:02:37.367Z,85.10
2022-11-18T17:05:25.802Z,85.10
2022-11-18T17:08:14.141Z,85.00
2022-11-18T17:11:08.611Z,85.10
2022-11-18T17:13:58.429Z,85.10
2022-11-18T17:16:47.513Z,85.10
2022-11-18T17:19:36.649Z,85.10
2022-11-18T17:22:25.129Z,85.10
2022-11-18T17:25:13.317Z,85.00
2022-11-18T17:28:03.567Z,85.00
2022-11-18T17:30:51.842Z,85.10
2022-11-18T17:33:40.755Z,85.10
2022-11-18T17:36:29.305Z,85.10
2022-11-18T17:39:19.093Z,85.10
2022-11-18T17:42:19.099Z,85.20
2022-11-18T17:45:10.509Z,85.20
2022-11-18T17:47:58.966Z,85.20
2022-11-18T17:50:47.281Z,85.10
2022-11-18T17:53:35.554Z,85.20
2022-11-18T17:56:24.418Z,85.20
2022-11-18T17:59:14.595Z,85.20
2022-11-18T18:02:04.776Z,85.20
2022-11-18T18:04:53.532Z,85.10
2022-11-18T18:07:41.839Z,85.20
2022-11-18T18:10:29.867Z,85.20
2022-11-18T18:13:50.556Z,85.20
2022-11-18T18:16:39.915Z,85.20
2022-11-18T18:19:29.501Z,85.20
2022-11-18T18:22:17.782Z,85.20
2022-11-18T18:25:06.858Z,85.20
2022-11-18T18:27:55.332Z,85.20
2022-11-18T18:30:44.022Z,85.20
2022-11-18T18:33:33.639Z,85.20
2022-11-18T18:36:25.668Z,85.20
2022-11-18T18:39:14.386Z,85.30
2022-11-18T18:42:03.847Z,85.30
2022-11-18T18:45:10.406Z,85.30
2022-11-18T18:48:03.175Z,85.30
2022-11-18T18:50:51.736Z,85.30
2022-11-18T18:53:41.382Z,85.30
2022-11-18T18:56:30.518Z,85.30
2022-11-18T18:59:19.121Z,85.20
2022-11-18T19:02:08.127Z,85.30
2022-11-18T19:04:56.524Z,85.30
2022-11-18T19:07:45.126Z,85.30
2022-11-18T19:10:38.311Z,85.30
2022-11-18T19:13:29.089Z,85.20
2022-11-18T19:16:18.071Z,85.10
2022-11-18T19:19:07.011Z,85.10
2022-11-18T19:21:55.190Z,85.20
2022-11-18T19:24:51.638Z,85.10
2022-11-18T19:27:41.714Z,85.20
2022-11-18T19:30:30.347Z,85.70
2022-11-18T19:33:18.689Z,85.20
2022-11-18T19:36:08.592Z,85.20
2022-11-18T19:38:57.258Z,85.70
2022-11-18T19:41:45.938Z,85.20
2022-11-18T19:44:36.295Z,85.20
2022-11-18T19:47:24.815Z,85.20
2022-11-18T19:50:13.520Z,85.20
2022-11-18T19:53:22.755Z,85.20
2022-11-18T19:56:13.892Z,85.30
2022-11-18T19:59:02.158Z,85.30
2022-11-18T20:01:51.912Z,85.20
2022-11-18T20:04:40.537Z,85.20
2022-11-18T20:07:29.162Z,85.30
2022-11-18T20:10:17.974Z,85.30
2022-11-18T20:13:06.449Z,85.30
2022-11-18T20:16:00.550Z,85.30
2022-11-18T20:18:54.571Z,85.30
2022-11-18T20:21:44.314Z,85.30
2022-11-18T20:24:33.078Z,85.30
2022-11-18T20:27:21.738Z,85.30
2022-11-18T20:30:11.298Z,85.20
2022-11-18T20:32:59.950Z,85.30
2022-11-18T20:35:49.895Z,85.30
2022-11-18T20:38:39.083Z,85.30
2022-11-18T20:41:30.539Z,85.20
2022-11-18T20:44:19.536Z,85.20
2022-11-18T20:47:08.102Z,85.20
2022-11-18T20:49:57.504Z,85.30
2022-11-18T20:52:46.987Z,85.20
2022-11-18T20:55:38.911Z,85.20
2022-11-18T20:58:27.429Z,85.20
2022-11-18T21:01:18.173Z,85.30
2022-11-18T21:04:06.667Z,85.20
2022-11-18T21:06:59.085Z,85.20
2022-11-18T21:09:50.582Z,85.20
2022-11-18T21:12:59.806Z,85.20
2022-11-18T21:15:48.390Z,85.20
2022-11-18T21:18:36.771Z,85.20
2022-11-18T21:21:42.589Z,85.20
2022-11-18T21:24:32.917Z,85.20
2022-11-18T21:27:23.042Z,85.20
2022-11-18T21:30:13.127Z,85.30
2022-11-18T21:33:01.819Z,85.30
2022-11-18T21:35:50.895Z,85.30
2022-11-18T21:38:39.704Z,85.30
2022-11-18T21:41:28.293Z,85.30
2022-11-18T21:44:18.090Z,85.30
2022-11-18T21:47:06.679Z,85.90
2022-11-18T21:49:55.418Z,85.30
2022-11-18T21:52:44.063Z,85.30
2022-11-18T21:55:32.359Z,85.30
2022-11-18T21:58:20.581Z,85.30
2022-11-18T22:01:12.392Z,85.30
2022-11-18T22:04:03.806Z,85.30
2022-11-18T22:06:52.380Z,85.30
2022-11-18T22:09:41.020Z,85.30
2022-11-18T22:12:29.225Z,85.20
2022-11-18T22:15:17.891Z,85.30
2022-11-18T22:18:08.183Z,85.20
2022-11-18T22:20:59.695Z,85.30
2022-11-18T22:23:48.593Z,85.20
2022-11-18T22:26:36.965Z,85.20
2022-11-18T22:29:26.273Z,85.20
2022-11-18T22:32:14.805Z,85.30
2022-11-18T22:35:04.538Z,85.30
2022-11-18T22:37:53.564Z,85.30
2022-11-18T22:40:41.842Z,85.30
2022-11-18T22:43:30.583Z,85.30
2022-11-18T22:46:18.899Z,85.30
2022-11-18T22:49:08.835Z,85.30
2022-11-18T22:51:58.501Z,85.40
2022-11-18T22:54:47.141Z,85.30
2022-11-18T22:57:35.851Z,85.30
2022-11-18T23:00:24.495Z,85.30
2022-11-18T23:03:12.758Z,85.30
2022-11-18T23:06:01.854Z,85.30
2022-11-18T23:08:51.726Z,85.30
2022-11-18T23:11:58.233Z,85.80
2022-11-18T23:14:46.500Z,85.30
2022-11-18T23:17:35.254Z,85.30
2022-11-18T23:20:23.664Z,85.30
2022-11-18T23:23:12.204Z,85.30
2022-11-18T23:26:06.142Z,85.40
2022-11-18T23:28:54.699Z,85.40
2022-11-18T23:31:44.701Z,85.40
2022-11-18T23:34:33.778Z,85.30
2022-11-18T23:37:21.710Z,85.30
2022-11-18T23:40:11.538Z,85.40
2022-11-18T23:43:01.144Z,85.30
2022-11-18T23:45:49.990Z,85.40
2022-11-18T23:48:40.217Z,85.40
2022-11-18T23:51:28.969Z,85.40
2022-11-18T23:54:17.778Z,85.40
2022-11-18T23:57:06.408Z,85.30
2022-11-18T23:59:55.742Z,85.40
